sensor_id;sensor_type;location;lat;lon;timestamp;pressure;altitude;pressure_sealevel;temperature;humidity
37904;BME280;23738;50.422;18.758;2022-12-05T00:00:49;98897.94;;;1.99;84.49
37904;BME280;23738;50.422;18.758;2022-12-05T00:03:17;98892.16;;;1.95;84.46
37904;BME280;23738;50.422;18.758;2022-12-05T00:05:43;98893.94;;;1.95;84.50
37904;BME280;23738;50.422;18.758;2022-12-05T00:08:09;98893.46;;;1.95;84.41
37904;BME280;23738;50.422;18.758;2022-12-05T00:10:36;98889.81;;;1.92;84.31
37904;BME280;23738;50.422;18.758;2022-12-05T00:13:02;98890.93;;;1.89;84.34
37904;BME280;23738;50.422;18.758;2022-12-05T00:15:28;98888.37;;;1.84;84.34
37904;BME280;23738;50.422;18.758;2022-12-05T00:17:54;98886.66;;;1.79;84.32
37904;BME280;23738;50.422;18.758;2022-12-05T00:20:20;98877.13;;;1.74;84.40
37904;BME280;23738;50.422;18.758;2022-12-05T00:22:45;98869.86;;;1.77;84.50
37904;BME280;23738;50.422;18.758;2022-12-05T00:25:11;98877.89;;;1.80;84.55
37904;BME280;23738;50.422;18.758;2022-12-05T00:27:37;98878.59;;;1.82;84.51
37904;BME280;23738;50.422;18.758;2022-12-05T00:30:04;98874.38;;;1.85;84.59
37904;BME280;23738;50.422;18.758;2022-12-05T00:32:32;98871.59;;;1.82;84.62
37904;BME280;23738;50.422;18.758;2022-12-05T00:34:58;98881.80;;;1.80;84.62
37904;BME280;23738;50.422;18.758;2022-12-05T00:37:24;98873.98;;;1.80;84.64
37904;BME280;23738;50.422;18.758;2022-12-05T00:39:50;98875.98;;;1.82;84.61
37904;BME280;23738;50.422;18.758;2022-12-05T00:42:16;98874.25;;;1.86;84.71
37904;BME280;23738;50.422;18.758;2022-12-05T00:44:41;98866.66;;;1.89;84.74
37904;BME280;23738;50.422;18.758;2022-12-05T00:47:07;98872.48;;;1.87;84.67
37904;BME280;23738;50.422;18.758;2022-12-05T00:49:33;98864.44;;;1.84;84.69
37904;BME280;23738;50.422;18.758;2022-12-05T00:51:59;98864.39;;;1.80;84.68
37904;BME280;23738;50.422;18.758;2022-12-05T00:54:24;98864.17;;;1.78;84.67
37904;BME280;23738;50.422;18.758;2022-12-05T00:56:50;98866.99;;;1.80;84.69
37904;BME280;23738;50.422;18.758;2022-12-05T00:59:20;98847.84;;;1.76;84.77
37904;BME280;23738;50.422;18.758;2022-12-05T01:01:47;98858.02;;;1.88;85.01
37904;BME280;23738;50.422;18.758;2022-12-05T01:04:17;98860.97;;;1.89;84.89
37904;BME280;23738;50.422;18.758;2022-12-05T01:06:44;98858.02;;;1.88;84.92
37904;BME280;23738;50.422;18.758;2022-12-05T01:09:13;98859.80;;;1.88;84.93
37904;BME280;23738;50.422;18.758;2022-12-05T01:11:40;98858.63;;;1.86;84.90
37904;BME280;23738;50.422;18.758;2022-12-05T01:14:07;98851.63;;;1.87;84.95
37904;BME280;23738;50.422;18.758;2022-12-05T01:16:35;98850.89;;;1.90;84.90
37904;BME280;23738;50.422;18.758;2022-12-05T01:19:05;98848.82;;;1.94;84.90
37904;BME280;23738;50.422;18.758;2022-12-05T01:21:33;98841.91;;;1.99;85.00
37904;BME280;23738;50.422;18.758;2022-12-05T01:23:59;98829.36;;;1.98;84.94
37904;BME280;23738;50.422;18.758;2022-12-05T01:26:25;98827.02;;;1.95;84.90
37904;BME280;23738;50.422;18.758;2022-12-05T01:28:51;98832.50;;;1.92;84.95
37904;BME280;23738;50.422;18.758;2022-12-05T01:31:26;98828.94;;;1.93;84.97
37904;BME280;23738;50.422;18.758;2022-12-05T01:33:55;98825.23;;;1.96;85.00
37904;BME280;23738;50.422;18.758;2022-12-05T01:36:23;98826.06;;;1.96;84.90
37904;BME280;23738;50.422;18.758;2022-12-05T01:38:50;98821.12;;;1.93;84.78
37904;BME280;23738;50.422;18.758;2022-12-05T01:41:23;98833.66;;;1.93;85.04
37904;BME280;23738;50.422;18.758;2022-12-05T01:46:25;98843.21;;;1.89;84.83
37904;BME280;23738;50.422;18.758;2022-12-05T01:48:56;98838.83;;;1.89;84.96
37904;BME280;23738;50.422;18.758;2022-12-05T01:51:24;98832.18;;;1.91;85.00
37904;BME280;23738;50.422;18.758;2022-12-05T01:53:50;98833.88;;;1.96;85.03
37904;BME280;23738;50.422;18.758;2022-12-05T01:56:17;98834.63;;;2.02;85.30
37904;BME280;23738;50.422;18.758;2022-12-05T01:58:43;98837.66;;;2.07;85.33
37904;BME280;23738;50.422;18.758;2022-12-05T02:01:11;98849.22;;;2.09;85.31
37904;BME280;23738;50.422;18.758;2022-12-05T02:03:40;98861.52;;;2.12;85.19
37904;BME280;23738;50.422;18.758;2022-12-05T02:06:06;98863.69;;;2.17;85.19
37904;BME280;23738;50.422;18.758;2022-12-05T02:08:33;98865.20;;;2.19;85.21
37904;BME280;23738;50.422;18.758;2022-12-05T02:11:00;98871.03;;;2.27;85.31
37904;BME280;23738;50.422;18.758;2022-12-05T02:19:36;98871.94;;;2.12;84.89
37904;BME280;23738;50.422;18.758;2022-12-05T02:27:43;98866.94;;;2.15;84.91
37904;BME280;23738;50.422;18.758;2022-12-05T02:30:14;98862.73;;;2.08;84.88
37904;BME280;23738;50.422;18.758;2022-12-05T02:38:44;98872.70;;;1.99;84.86
37904;BME280;23738;50.422;18.758;2022-12-05T02:44:46;98872.70;;;1.99;84.86
37904;BME280;23738;50.422;18.758;2022-12-05T02:46:41;98860.63;;;1.98;84.88
37904;BME280;23738;50.422;18.758;2022-12-05T02:49:14;98863.90;;;2.00;84.90
37904;BME280;23738;50.422;18.758;2022-12-05T02:51:44;98870.16;;;2.03;85.14
37904;BME280;23738;50.422;18.758;2022-12-05T02:54:23;98870.63;;;2.03;85.01
37904;BME280;23738;50.422;18.758;2022-12-05T02:56:45;98853.16;;;1.99;84.86
37904;BME280;23738;50.422;18.758;2022-12-05T02:59:12;98857.20;;;1.98;85.00
37904;BME280;23738;50.422;18.758;2022-12-05T03:01:38;98861.98;;;2.02;84.99
37904;BME280;23738;50.422;18.758;2022-12-05T03:04:06;98856.16;;;2.04;84.88
37904;BME280;23738;50.422;18.758;2022-12-05T03:06:43;98856.43;;;2.01;84.77
37904;BME280;23738;50.422;18.758;2022-12-05T03:09:26;98864.38;;;2.00;84.86
37904;BME280;23738;50.422;18.758;2022-12-05T03:11:53;98860.63;;;1.98;84.89
37904;BME280;23738;50.422;18.758;2022-12-05T03:14:24;98859.80;;;1.98;84.89
37904;BME280;23738;50.422;18.758;2022-12-05T03:16:55;98861.50;;;1.93;84.84
37904;BME280;23738;50.422;18.758;2022-12-05T03:19:43;98864.93;;;1.93;84.89
37904;BME280;23738;50.422;18.758;2022-12-05T03:22:23;98856.25;;;1.99;84.98
37904;BME280;23738;50.422;18.758;2022-12-05T03:25:00;98855.21;;;2.05;85.01
37904;BME280;23738;50.422;18.758;2022-12-05T03:30:16;98845.74;;;2.04;84.95
37904;BME280;23738;50.422;18.758;2022-12-05T03:32:50;98843.05;;;2.00;84.91
37904;BME280;23738;50.422;18.758;2022-12-05T03:38:10;98838.75;;;2.05;84.96
37904;BME280;23738;50.422;18.758;2022-12-05T03:43:26;98833.62;;;1.99;84.87
37904;BME280;23738;50.422;18.758;2022-12-05T03:49:02;98831.67;;;2.01;85.13
37904;BME280;23738;50.422;18.758;2022-12-05T03:51:51;98831.67;;;2.01;85.04
37904;BME280;23738;50.422;18.758;2022-12-05T03:54:27;98824.07;;;2.04;85.08
37904;BME280;23738;50.422;18.758;2022-12-05T03:57:19;98812.82;;;2.03;84.93
37904;BME280;23738;50.422;18.758;2022-12-05T04:05:22;98794.10;;;2.04;85.02
37904;BME280;23738;50.422;18.758;2022-12-05T04:07:57;98808.57;;;2.02;84.98
37904;BME280;23738;50.422;18.758;2022-12-05T04:10:30;98797.45;;;2.00;85.07
37904;BME280;23738;50.422;18.758;2022-12-05T04:12:59;98816.81;;;1.98;84.97
37904;BME280;23738;50.422;18.758;2022-12-05T04:15:30;98803.66;;;1.99;85.01
37904;BME280;23738;50.422;18.758;2022-12-05T04:17:59;98812.13;;;2.01;84.99
37904;BME280;23738;50.422;18.758;2022-12-05T04:20:38;98809.00;;;2.07;85.10
37904;BME280;23738;50.422;18.758;2022-12-05T04:23:21;98798.57;;;2.07;84.84
37904;BME280;23738;50.422;18.758;2022-12-05T04:25:55;98798.57;;;2.07;84.84
37904;BME280;23738;50.422;18.758;2022-12-05T04:28:31;98806.17;;;2.05;85.02
37904;BME280;23738;50.422;18.758;2022-12-05T04:31:21;98805.83;;;2.04;85.02
37904;BME280;23738;50.422;18.758;2022-12-05T04:34:02;98812.82;;;2.03;85.11
37904;BME280;23738;50.422;18.758;2022-12-05T04:36:49;98793.23;;;1.99;85.12
37904;BME280;23738;50.422;18.758;2022-12-05T04:39:39;98802.39;;;2.13;85.27
37904;BME280;23738;50.422;18.758;2022-12-05T04:42:08;98807.95;;;2.23;85.30
37904;BME280;23738;50.422;18.758;2022-12-05T04:44:43;98821.72;;;2.29;85.47
37904;BME280;23738;50.422;18.758;2022-12-05T04:47:11;98829.58;;;2.34;85.38
37904;BME280;23738;50.422;18.758;2022-12-05T04:49:40;98825.41;;;2.37;85.37
37904;BME280;23738;50.422;18.758;2022-12-05T04:52:09;98822.66;;;2.38;85.33
37904;BME280;23738;50.422;18.758;2022-12-05T04:57:18;98819.58;;;2.39;85.12
37904;BME280;23738;50.422;18.758;2022-12-05T04:59:49;98815.84;;;2.41;85.02
37904;BME280;23738;50.422;18.758;2022-12-05T05:02:18;98814.02;;;2.38;84.82
37904;BME280;23738;50.422;18.758;2022-12-05T05:04:48;98815.24;;;2.34;84.84
37904;BME280;23738;50.422;18.758;2022-12-05T05:07:16;98810.94;;;2.28;84.81
37904;BME280;23738;50.422;18.758;2022-12-05T05:09:43;98813.34;;;2.26;84.83
37904;BME280;23738;50.422;18.758;2022-12-05T05:12:09;98814.59;;;2.22;84.74
37904;BME280;23738;50.422;18.758;2022-12-05T05:14:36;98811.16;;;2.21;84.74
37904;BME280;23738;50.422;18.758;2022-12-05T05:17:02;98804.99;;;2.22;84.73
37904;BME280;23738;50.422;18.758;2022-12-05T05:19:28;98807.95;;;2.23;84.79
37904;BME280;23738;50.422;18.758;2022-12-05T05:21:54;98806.64;;;2.23;84.89
37904;BME280;23738;50.422;18.758;2022-12-05T05:24:20;98810.38;;;2.25;84.99
37904;BME280;23738;50.422;18.758;2022-12-05T05:26:48;98802.43;;;2.26;85.00
37904;BME280;23738;50.422;18.758;2022-12-05T05:29:14;98807.78;;;2.25;84.96
37904;BME280;23738;50.422;18.758;2022-12-05T05:31:40;98803.05;;;2.24;84.83
37904;BME280;23738;50.422;18.758;2022-12-05T05:34:07;98807.30;;;2.25;84.85
37904;BME280;23738;50.422;18.758;2022-12-05T05:36:34;98805.38;;;2.27;84.81
37904;BME280;23738;50.422;18.758;2022-12-05T05:39:00;98799.95;;;2.25;84.75
37904;BME280;23738;50.422;18.758;2022-12-05T05:41:34;98796.69;;;2.23;84.73
37904;BME280;23738;50.422;18.758;2022-12-05T05:44:01;98793.05;;;2.20;84.78
37904;BME280;23738;50.422;18.758;2022-12-05T05:46:30;98784.20;;;2.17;84.82
37904;BME280;23738;50.422;18.758;2022-12-05T05:48:58;98791.53;;;2.17;84.81
37904;BME280;23738;50.422;18.758;2022-12-05T05:51:24;98782.89;;;2.17;84.77
37904;BME280;23738;50.422;18.758;2022-12-05T05:53:52;98781.53;;;2.22;84.87
37904;BME280;23738;50.422;18.758;2022-12-05T05:56:19;98779.88;;;2.21;84.84
37904;BME280;23738;50.422;18.758;2022-12-05T05:58:46;98778.03;;;2.18;84.78
37904;BME280;23738;50.422;18.758;2022-12-05T06:01:17;98770.64;;;2.13;84.76
37904;BME280;23738;50.422;18.758;2022-12-05T06:03:47;98781.33;;;2.10;84.84
37904;BME280;23738;50.422;18.758;2022-12-05T06:06:15;98782.98;;;2.11;84.88
37904;BME280;23738;50.422;18.758;2022-12-05T06:08:42;98782.77;;;2.09;84.72
37904;BME280;23738;50.422;18.758;2022-12-05T06:11:14;98780.33;;;2.07;84.70
37904;BME280;23738;50.422;18.758;2022-12-05T06:13:42;98783.41;;;2.07;84.67
37904;BME280;23738;50.422;18.758;2022-12-05T06:16:10;98781.55;;;2.03;84.60
37904;BME280;23738;50.422;18.758;2022-12-05T06:18:37;98778.47;;;2.04;84.69
37904;BME280;23738;50.422;18.758;2022-12-05T06:21:03;98776.00;;;2.02;84.73
37904;BME280;23738;50.422;18.758;2022-12-05T06:23:35;98777.59;;;1.99;84.73
37904;BME280;23738;50.422;18.758;2022-12-05T06:26:02;98784.77;;;2.01;84.75
37904;BME280;23738;50.422;18.758;2022-12-05T06:28:28;98789.85;;;2.03;84.67
37904;BME280;23738;50.422;18.758;2022-12-05T06:30:54;98785.67;;;2.06;84.63
37904;BME280;23738;50.422;18.758;2022-12-05T06:33:20;98779.77;;;2.04;84.57
37904;BME280;23738;50.422;18.758;2022-12-05T06:35:46;98784.42;;;2.00;84.44
37904;BME280;23738;50.422;18.758;2022-12-05T06:38:12;98782.59;;;1.97;84.63
37904;BME280;23738;50.422;18.758;2022-12-05T06:40:40;98791.16;;;1.93;84.50
37904;BME280;23738;50.422;18.758;2022-12-05T06:43:07;98785.68;;;1.86;84.40
37904;BME280;23738;50.422;18.758;2022-12-05T06:45:33;98787.46;;;1.86;84.48
37904;BME280;23738;50.422;18.758;2022-12-05T06:47:59;98787.20;;;1.89;84.50
37904;BME280;23738;50.422;18.758;2022-12-05T06:50:25;98792.89;;;1.88;84.42
37904;BME280;23738;50.422;18.758;2022-12-05T06:52:50;98801.18;;;1.88;84.37
37904;BME280;23738;50.422;18.758;2022-12-05T06:55:16;98805.70;;;1.86;84.48
37904;BME280;23738;50.422;18.758;2022-12-05T06:57:42;98805.22;;;1.86;84.52
37904;BME280;23738;50.422;18.758;2022-12-05T07:00:09;98800.01;;;1.86;84.55
37904;BME280;23738;50.422;18.758;2022-12-05T07:02:53;98811.95;;;1.89;84.63
37904;BME280;23738;50.422;18.758;2022-12-05T07:05:19;98804.19;;;1.93;84.57
37904;BME280;23738;50.422;18.758;2022-12-05T07:07:45;98802.19;;;2.01;84.81
37904;BME280;23738;50.422;18.758;2022-12-05T07:10:11;98801.48;;;2.08;84.72
37904;BME280;23738;50.422;18.758;2022-12-05T07:12:37;98804.17;;;2.12;84.78
37904;BME280;23738;50.422;18.758;2022-12-05T07:15:03;98813.34;;;2.16;84.72
37904;BME280;23738;50.422;18.758;2022-12-05T07:17:30;98801.92;;;2.13;84.67
37904;BME280;23738;50.422;18.758;2022-12-05T07:19:59;98817.20;;;2.12;84.67
37904;BME280;23738;50.422;18.758;2022-12-05T07:22:25;98808.44;;;2.13;84.66
37904;BME280;23738;50.422;18.758;2022-12-05T07:24:51;98809.65;;;2.19;84.73
37904;BME280;23738;50.422;18.758;2022-12-05T07:27:17;98813.81;;;2.25;84.78
37904;BME280;23738;50.422;18.758;2022-12-05T07:29:43;98816.76;;;2.36;84.98
37904;BME280;23738;50.422;18.758;2022-12-05T07:32:09;98811.27;;;2.39;84.92
37904;BME280;23738;50.422;18.758;2022-12-05T07:34:35;98806.58;;;2.43;85.01
37904;BME280;23738;50.422;18.758;2022-12-05T07:37:03;98798.28;;;2.43;84.78
37904;BME280;23738;50.422;18.758;2022-12-05T07:39:29;98798.06;;;2.41;84.80
37904;BME280;23738;50.422;18.758;2022-12-05T07:41:55;98796.50;;;2.44;84.86
37904;BME280;23738;50.422;18.758;2022-12-05T07:44:21;98799.48;;;2.49;84.79
37904;BME280;23738;50.422;18.758;2022-12-05T07:46:47;98803.95;;;2.52;84.75
37904;BME280;23738;50.422;18.758;2022-12-05T07:49:13;98801.38;;;2.56;84.77
37904;BME280;23738;50.422;18.758;2022-12-05T07:51:40;98801.80;;;2.61;84.88
37904;BME280;23738;50.422;18.758;2022-12-05T07:54:06;98800.19;;;2.64;84.89
37904;BME280;23738;50.422;18.758;2022-12-05T07:56:32;98808.09;;;2.68;85.01
37904;BME280;23738;50.422;18.758;2022-12-05T07:58:58;98803.39;;;2.72;84.97
37904;BME280;23738;50.422;18.758;2022-12-05T08:01:26;98804.28;;;2.77;84.95
37904;BME280;23738;50.422;18.758;2022-12-05T08:03:54;98802.39;;;2.83;84.91
37904;BME280;23738;50.422;18.758;2022-12-05T08:06:27;98792.55;;;2.90;84.97
37904;BME280;23738;50.422;18.758;2022-12-05T08:08:54;98802.73;;;2.97;84.96
37904;BME280;23738;50.422;18.758;2022-12-05T08:11:27;98801.67;;;3.04;85.02
37904;BME280;23738;50.422;18.758;2022-12-05T08:13:51;98807.44;;;3.07;85.07
37904;BME280;23738;50.422;18.758;2022-12-05T08:16:20;98807.33;;;3.13;85.10
37904;BME280;23738;50.422;18.758;2022-12-05T08:18:48;98809.20;;;3.21;85.31
37904;BME280;23738;50.422;18.758;2022-12-05T08:21:17;98774.05;;;3.11;85.45
37904;BME280;23738;50.422;18.758;2022-12-05T08:23:44;98807.60;;;3.51;85.42
37904;BME280;23738;50.422;18.758;2022-12-05T08:26:14;98809.95;;;3.58;85.24
37904;BME280;23738;50.422;18.758;2022-12-05T08:28:42;98821.95;;;3.69;85.52
37904;BME280;23738;50.422;18.758;2022-12-05T08:31:16;98816.95;;;3.75;85.27
37904;BME280;23738;50.422;18.758;2022-12-05T08:33:43;98816.67;;;3.78;85.34
37904;BME280;23738;50.422;18.758;2022-12-05T08:36:11;98819.48;;;3.81;85.32
37904;BME280;23738;50.422;18.758;2022-12-05T08:38:40;98827.48;;;3.83;85.34
37904;BME280;23738;50.422;18.758;2022-12-05T08:41:09;98826.56;;;3.89;85.33
37904;BME280;23738;50.422;18.758;2022-12-05T08:43:36;98822.86;;;3.95;85.26
37904;BME280;23738;50.422;18.758;2022-12-05T08:46:02;98826.30;;;3.96;85.00
37904;BME280;23738;50.422;18.758;2022-12-05T08:48:30;98830.36;;;3.94;84.98
37904;BME280;23738;50.422;18.758;2022-12-05T08:50:57;98831.72;;;3.98;85.18
37904;BME280;23738;50.422;18.758;2022-12-05T08:53:24;98834.82;;;3.98;85.02
37904;BME280;23738;50.422;18.758;2022-12-05T08:55:51;98837.09;;;3.97;85.02
37904;BME280;23738;50.422;18.758;2022-12-05T08:58:16;98827.27;;;3.95;84.83
37904;BME280;23738;50.422;18.758;2022-12-05T09:00:42;98832.50;;;3.95;84.85
37904;BME280;23738;50.422;18.758;2022-12-05T09:03:10;98830.90;;;3.98;84.77
37904;BME280;23738;50.422;18.758;2022-12-05T09:05:36;98834.16;;;4.00;84.80
37904;BME280;23738;50.422;18.758;2022-12-05T09:08:02;98822.73;;;4.01;84.78
37904;BME280;23738;50.422;18.758;2022-12-05T09:10:29;98822.40;;;4.00;84.76
37904;BME280;23738;50.422;18.758;2022-12-05T09:12:55;98820.13;;;4.01;84.82
37904;BME280;23738;50.422;18.758;2022-12-05T09:15:21;98817.91;;;4.10;84.93
37904;BME280;23738;50.422;18.758;2022-12-05T09:17:46;98814.39;;;4.19;84.89
37904;BME280;23738;50.422;18.758;2022-12-05T09:20:12;98809.86;;;4.25;84.76
37904;BME280;23738;50.422;18.758;2022-12-05T09:22:39;98807.94;;;4.31;84.90
37904;BME280;23738;50.422;18.758;2022-12-05T09:25:06;98806.03;;;4.37;84.85
37904;BME280;23738;50.422;18.758;2022-12-05T09:27:33;98806.09;;;4.45;84.99
37904;BME280;23738;50.422;18.758;2022-12-05T09:29:59;98805.80;;;4.52;84.98
37904;BME280;23738;50.422;18.758;2022-12-05T09:32:25;98806.19;;;4.61;85.01
37904;BME280;23738;50.422;18.758;2022-12-05T09:34:50;98804.44;;;4.70;84.99
37904;BME280;23738;50.422;18.758;2022-12-05T09:37:16;98802.99;;;4.80;84.97
37904;BME280;23738;50.422;18.758;2022-12-05T09:39:45;98793.72;;;4.85;84.89
37904;BME280;23738;50.422;18.758;2022-12-05T09:50:52;98792.81;;;5.07;85.00
37904;BME280;23738;50.422;18.758;2022-12-05T09:53:33;98791.05;;;5.15;84.98
37904;BME280;23738;50.422;18.758;2022-12-05T09:56:20;98780.59;;;5.23;84.87
37904;BME280;23738;50.422;18.758;2022-12-05T09:58:48;98782.09;;;5.26;84.62
37904;BME280;23738;50.422;18.758;2022-12-05T10:07:41;98766.04;;;5.25;84.57
37904;BME280;23738;50.422;18.758;2022-12-05T10:10:33;98772.13;;;5.33;84.57
37904;BME280;23738;50.422;18.758;2022-12-05T10:13:22;98773.76;;;5.38;84.51
37904;BME280;23738;50.422;18.758;2022-12-05T10:16:01;98774.75;;;5.46;84.54
37904;BME280;23738;50.422;18.758;2022-12-05T10:18:47;98777.08;;;5.57;84.72
37904;BME280;23738;50.422;18.758;2022-12-05T10:21:26;98778.71;;;5.62;84.49
37904;BME280;23738;50.422;18.758;2022-12-05T10:24:01;98775.29;;;5.65;84.46
37904;BME280;23738;50.422;18.758;2022-12-05T10:26:44;98775.10;;;5.67;84.34
37904;BME280;23738;50.422;18.758;2022-12-05T10:29:29;98774.61;;;5.67;84.28
37904;BME280;23738;50.422;18.758;2022-12-05T10:32:15;98774.14;;;5.72;84.41
37904;BME280;23738;50.422;18.758;2022-12-05T10:34:41;98775.30;;;5.82;84.56
37904;BME280;23738;50.422;18.758;2022-12-05T10:37:20;98778.45;;;5.89;84.46
37904;BME280;23738;50.422;18.758;2022-12-05T10:39:44;98768.78;;;5.90;84.17
37904;BME280;23738;50.422;18.758;2022-12-05T10:42:14;98770.58;;;5.89;84.21
37904;BME280;23738;50.422;18.758;2022-12-05T10:44:51;98779.08;;;5.91;84.10
37904;BME280;23738;50.422;18.758;2022-12-05T10:47:19;98782.21;;;5.95;84.23
37904;BME280;23738;50.422;18.758;2022-12-05T10:49:45;98776.46;;;5.99;84.17
37904;BME280;23738;50.422;18.758;2022-12-05T10:52:12;98777.95;;;6.02;84.01
37904;BME280;23738;50.422;18.758;2022-12-05T10:54:44;98787.77;;;6.08;83.96
37904;BME280;23738;50.422;18.758;2022-12-05T10:57:22;98784.67;;;6.12;83.79
37904;BME280;23738;50.422;18.758;2022-12-05T10:59:50;98783.34;;;6.17;83.78
37904;BME280;23738;50.422;18.758;2022-12-05T11:02:30;98785.30;;;6.23;83.83
37904;BME280;23738;50.422;18.758;2022-12-05T11:04:57;98786.78;;;6.25;83.75
37904;BME280;23738;50.422;18.758;2022-12-05T11:07:29;98775.48;;;6.29;83.71
37904;BME280;23738;50.422;18.758;2022-12-05T11:10:03;98778.92;;;6.29;83.56
37904;BME280;23738;50.422;18.758;2022-12-05T11:12:35;98780.05;;;6.31;83.48
37904;BME280;23738;50.422;18.758;2022-12-05T11:17:51;98774.78;;;6.39;83.31
37904;BME280;23738;50.422;18.758;2022-12-05T11:22:54;98768.23;;;6.31;82.80
37904;BME280;23738;50.422;18.758;2022-12-05T11:25:34;98763.34;;;6.28;82.89
37904;BME280;23738;50.422;18.758;2022-12-05T11:34:03;98762.19;;;6.26;82.71
37904;BME280;23738;50.422;18.758;2022-12-05T11:39:31;98760.06;;;6.30;82.73
37904;BME280;23738;50.422;18.758;2022-12-05T11:42:12;98764.63;;;6.32;82.71
37904;BME280;23738;50.422;18.758;2022-12-05T11:53:50;98757.44;;;6.30;82.52
37904;BME280;23738;50.422;18.758;2022-12-05T11:56:37;98757.44;;;6.26;82.40
37904;BME280;23738;50.422;18.758;2022-12-05T12:02:12;98757.92;;;6.25;82.18
37904;BME280;23738;50.422;18.758;2022-12-05T12:10:53;98757.27;;;6.27;82.23
37904;BME280;23738;50.422;18.758;2022-12-05T12:19:55;98745.95;;;6.27;82.09
37904;BME280;23738;50.422;18.758;2022-12-05T12:26:01;98748.23;;;6.34;82.17
37904;BME280;23738;50.422;18.758;2022-12-05T12:28:36;98740.05;;;6.37;82.09
37904;BME280;23738;50.422;18.758;2022-12-05T12:31:27;98734.78;;;6.33;81.88
37904;BME280;23738;50.422;18.758;2022-12-05T12:37:18;98735.80;;;6.28;81.86
37904;BME280;23738;50.422;18.758;2022-12-05T12:39:50;98744.63;;;6.31;81.77
37904;BME280;23738;50.422;18.758;2022-12-05T12:42:27;98730.19;;;6.31;81.75
37904;BME280;23738;50.422;18.758;2022-12-05T12:50:23;98724.16;;;6.30;81.65
37904;BME280;23738;50.422;18.758;2022-12-05T13:02:49;98723.31;;;6.38;81.66
37904;BME280;23738;50.422;18.758;2022-12-05T13:04:53;98726.08;;;6.40;81.64
37904;BME280;23738;50.422;18.758;2022-12-05T13:07:36;98723.29;;;6.42;81.62
37904;BME280;23738;50.422;18.758;2022-12-05T13:10:15;98722.64;;;6.44;81.56
37904;BME280;23738;50.422;18.758;2022-12-05T13:12:52;98729.86;;;6.46;81.70
37904;BME280;23738;50.422;18.758;2022-12-05T13:15:34;98724.42;;;6.51;81.79
37904;BME280;23738;50.422;18.758;2022-12-05T13:18:11;98719.63;;;6.55;81.68
37904;BME280;23738;50.422;18.758;2022-12-05T13:20:39;98720.95;;;6.59;81.56
37904;BME280;23738;50.422;18.758;2022-12-05T13:23:06;98725.54;;;6.61;81.46
37904;BME280;23738;50.422;18.758;2022-12-05T13:25:35;98715.86;;;6.62;81.44
37904;BME280;23738;50.422;18.758;2022-12-05T13:28:05;98712.55;;;6.64;81.54
37904;BME280;23738;50.422;18.758;2022-12-05T13:30:34;98717.31;;;6.68;81.49
37904;BME280;23738;50.422;18.758;2022-12-05T13:33:05;98724.20;;;6.69;81.48
37904;BME280;23738;50.422;18.758;2022-12-05T13:35:36;98723.84;;;6.72;81.59
37904;BME280;23738;50.422;18.758;2022-12-05T13:38:33;98727.78;;;6.76;81.44
37904;BME280;23738;50.422;18.758;2022-12-05T13:41:19;98726.44;;;6.80;81.38
37904;BME280;23738;50.422;18.758;2022-12-05T13:44:03;98726.77;;;6.81;81.31
37904;BME280;23738;50.422;18.758;2022-12-05T13:46:33;98728.73;;;6.83;81.28
37904;BME280;23738;50.422;18.758;2022-12-05T13:49:31;98736.77;;;6.86;81.35
37904;BME280;23738;50.422;18.758;2022-12-05T13:51:43;98735.46;;;6.86;81.22
37904;BME280;23738;50.422;18.758;2022-12-05T13:54:21;98740.19;;;6.86;81.21
37904;BME280;23738;50.422;18.758;2022-12-05T13:56:57;98740.19;;;6.86;81.26
37904;BME280;23738;50.422;18.758;2022-12-05T14:00:01;98735.92;;;6.89;81.26
37904;BME280;23738;50.422;18.758;2022-12-05T14:07:51;98740.48;;;6.96;80.92
37904;BME280;23738;50.422;18.758;2022-12-05T14:13:37;98754.10;;;6.95;80.97
37904;BME280;23738;50.422;18.758;2022-12-05T14:15:43;98752.50;;;6.90;80.80
37904;BME280;23738;50.422;18.758;2022-12-05T14:18:20;98752.69;;;6.84;80.85
37904;BME280;23738;50.422;18.758;2022-12-05T14:35:14;98755.51;;;6.75;80.81
37904;BME280;23738;50.422;18.758;2022-12-05T14:37:57;98747.64;;;6.75;80.84
37904;BME280;23738;50.422;18.758;2022-12-05T14:40:32;98752.59;;;6.70;80.74
37904;BME280;23738;50.422;18.758;2022-12-05T14:43:03;98755.70;;;6.69;80.66
37904;BME280;23738;50.422;18.758;2022-12-05T14:45:40;98751.44;;;6.68;80.66
37904;BME280;23738;50.422;18.758;2022-12-05T14:50:49;98760.27;;;6.71;80.61
37904;BME280;23738;50.422;18.758;2022-12-05T14:53:31;98758.95;;;6.71;80.53
37904;BME280;23738;50.422;18.758;2022-12-05T15:01:34;98744.90;;;6.60;80.53
37904;BME280;23738;50.422;18.758;2022-12-05T15:04:19;98743.59;;;6.60;80.48
37904;BME280;23738;50.422;18.758;2022-12-05T15:09:30;98740.63;;;6.59;80.41
37904;BME280;23738;50.422;18.758;2022-12-05T15:12:20;98744.57;;;6.59;80.43
37904;BME280;23738;50.422;18.758;2022-12-05T15:17:59;98733.11;;;6.52;80.38
37904;BME280;23738;50.422;18.758;2022-12-05T15:20:40;98740.00;;;6.49;80.46
37904;BME280;23738;50.422;18.758;2022-12-05T15:23:44;98737.73;;;6.46;80.37
37904;BME280;23738;50.422;18.758;2022-12-05T15:35:05;98737.23;;;6.46;80.36
37904;BME280;23738;50.422;18.758;2022-12-05T15:40:33;98725.61;;;6.37;80.23
37904;BME280;23738;50.422;18.758;2022-12-05T15:43:25;98730.36;;;6.33;80.29
37904;BME280;23738;50.422;18.758;2022-12-05T15:46:20;98723.80;;;6.33;80.33
37904;BME280;23738;50.422;18.758;2022-12-05T15:48:53;98723.31;;;6.34;80.29
37904;BME280;23738;50.422;18.758;2022-12-05T15:51:32;98725.94;;;6.34;80.26
37904;BME280;23738;50.422;18.758;2022-12-05T15:54:06;98727.56;;;6.31;80.14
37904;BME280;23738;50.422;18.758;2022-12-05T15:56:43;98731.04;;;6.27;80.23
37904;BME280;23738;50.422;18.758;2022-12-05T15:59:30;98734.15;;;6.27;80.24
37904;BME280;23738;50.422;18.758;2022-12-05T16:02:20;98725.78;;;6.23;80.19
37904;BME280;23738;50.422;18.758;2022-12-05T16:04:52;98726.95;;;6.21;80.27
37904;BME280;23738;50.422;18.758;2022-12-05T16:07:22;98734.00;;;6.20;80.21